Terminal Aerodrome Forecast
Issued by NWS Wichita, KS

Home | Current Version | Previous Version | Graphics & Text | Print | Product List | Glossary On
Versions: 1 2 3 4 5 6 7 8 9 10 11 12 13 14 15 16 17 18 19 20 21 22 23 24 25
929
FTUS43 KICT 231317 AAB
TAFICT
TAF AMD
KICT 231317Z 2313/2412 17016G25KT P6SM VCTS BKN025 OVC080CB
      TEMPO 2313/2315 2SM TSRA BR BKN025CB
     FM231500 17016G23KT P6SM VCTS BKN025 OVC080CB
     FM231700 17016G23KT P6SM SCT025 BKN035
     FM232300 17016G25KT P6SM BKN025=

USA.gov is the U.S. government's official web portal to all federal, state and local government web resources and services.